Dickens, Texas
Current Conditions -  °F | °C
As of 5:53 AM on Friday 21 Nov 2014 (Local Time) from KLBB Reporting Station
Few Clouds Few Clouds  
Wind Chill: 23°   Ceiling: Unl
Heat Index: 30°   Visibility: 7mi
Dew Point: 27°   Wind: 7mph
Humidity: 88%   Direction: 330°NNW
Pressure: 30"   Gusts: NA
Location:  33.62°N, 100.84°W
Report Text: KLBB 211153Z 33006KT 7SM FEW250 FEW300 M01/M03 A3000 RMK AO2 SLP151 BR ALQDS T10111028 10022 21022 53003
Loading
Personal Weather Stations






























Interactive Weather Map New forecast layout! Learn more

10-Day Weather Forecast

Advertisements
Track Severe Weather on mobile